Yvonne K. — PBLX — position and weather

sailwx.info

Track history (hours):
 
Tides and Currents Weather Stations Pressure Air Temp Water Temp Dewpoint Dewpoint Depression Visibility Wind Speed Wind Dir Waves Ship Positions

Yvonne K.

Last reported at 2015-Feb-01 14:32 UTC. Time now 2015-Feb-01 14:49 UTC.
Position N 43°24' E 004°51'.

Length 90 m; draft 3.5 m.

Type: Cargo ship. MMSI: 244948000.

Date/timePositionNaut miles runAvg speedWind from/ knotsBaromVisibWave heightAir tempDewpointWater temp
2015-Feb-01 14:32N 43°24' E 004°51'0 0.0
2015-Feb-01 13:23N 43°24' E 004°51'0 0.0
2015-Feb-01 12:32N 43°24' E 004°51'0 0.0
2015-Feb-01 11:29N 43°24' E 004°51'0 0.0
2015-Feb-01 10:29N 43°24' E 004°51'0 0.0
2015-Feb-01 09:23N 43°24' E 004°51'0 0.0
2015-Feb-01 08:29N 43°24' E 004°51'0 0.0
2015-Feb-01 07:26N 43°24' E 004°51'0 0.0
2015-Feb-01 06:23N 43°24' E 004°51'0 0.0
2015-Feb-01 05:23N 43°24' E 004°51'0 0.0
2015-Feb-01 04:17N 43°24' E 004°51'0 0.0
2015-Feb-01 03:29N 43°24' E 004°51'0 0.0
2015-Feb-01 02:17N 43°24' E 004°51'0 0.0
2015-Jan-31 23:29N 43°24' E 004°51'0 0.0
2015-Jan-31 21:29N 43°24' E 004°51'0 0.0
2015-Jan-31 20:26N 43°24' E 004°51'0 0.0
2015-Jan-31 19:14N 43°24' E 004°51'0 0.0
2015-Jan-31 18:23N 43°24' E 004°51'0 0.0
2015-Jan-31 16:20N 43°24' E 004°51'0 0.0
2015-Jan-31 15:11N 43°24' E 004°51'0 0.0
2015-Jan-31 14:17N 43°24' E 004°51'0 0.0
2015-Jan-31 13:29N 43°24' E 004°51'0 0.0
2015-Jan-31 12:23N 43°24' E 004°51'0 0.0
2015-Jan-31 11:29N 43°24' E 004°51'0 0.0
2015-Jan-31 10:14N 43°24' E 004°51'3 5.1
2015-Jan-31 09:33N 43°23' E 004°56'8 8.4
2015-Jan-31 08:33N 43°16' E 005°01'18 9.1
2015-Jan-31 06:34N 43°07' E 005°22'59 8.3
2015-Jan-30 23:28N 42°59' E 006°42'8 8.9
2015-Jan-30 22:33N 43°06' E 006°48'9 9.1
2015-Jan-30 21:33N 43°13' E 006°56'8 8.4
2015-Jan-30 20:33N 43°20' E 007°02'8 7.9
2015-Jan-30 19:33N 43°27' E 007°08'9 8.9
2015-Jan-30 18:33N 43°35' E 007°14'8 8.3
2015-Jan-30 17:33N 43°36' E 007°25'57 7.0
2015-Jan-30 09:24N 43°31' E 008°44'5 6.3
2015-Jan-30 08:33N 43°31' E 008°51'31 4.3
2015-Jan-30 01:21N 43°22' E 009°32'4 4.8
2015-Jan-30 00:31N 43°21' E 009°38'5 4.8
2015-Jan-29 23:31N 43°19' E 009°44'5 4.8
2015-Jan-29 22:33N 43°18' E 009°50'5 4.9
2015-Jan-29 21:34N 43°17' E 009°57'4 4.1
2015-Jan-29 20:33N 43°18' E 010°02'5 5.0
2015-Jan-29 19:33N 43°22' E 010°05'5 5.1
2015-Jan-29 18:34N 43°27' E 010°08'5 4.8
2015-Jan-29 17:33N 43°31' E 010°12'5 4.8
2015-Jan-29 16:30N 43°34' E 010°18'0 0.0
2015-Jan-29 15:33N 43°34' E 010°18'0 0.0
2015-Jan-29 14:33N 43°34' E 010°18'0 0.0
2015-Jan-29 13:30N 43°34' E 010°18'0 0.0
2015-Jan-29 12:33N 43°34' E 010°18'0 0.0
2015-Jan-29 11:33N 43°34' E 010°18'0 0.0
2015-Jan-29 10:33N 43°34' E 010°18'0 0.0
2015-Jan-29 09:33N 43°34' E 010°18'0 0.0
2015-Jan-29 08:33N 43°34' E 010°18'0 0.0
2015-Jan-29 07:33N 43°34' E 010°18'0 0.0
2015-Jan-29 06:33N 43°34' E 010°18'0 0.0
2015-Jan-29 05:33N 43°34' E 010°18'0 0.0
2015-Jan-29 04:33N 43°34' E 010°18'0 0.0
2015-Jan-29 03:30N 43°34' E 010°18'0 0.0
2015-Jan-29 02:30N 43°34' E 010°18'0 0.0
2015-Jan-29 01:33N 43°34' E 010°18'0 0.0
2015-Jan-29 00:33N 43°34' E 010°18'0 0.0
2015-Jan-28 23:33N 43°34' E 010°18'0 0.0
2015-Jan-28 22:33N 43°34' E 010°18'0 0.0
2015-Jan-28 21:33N 43°34' E 010°18'0 0.0
2015-Jan-28 20:33N 43°34' E 010°18'0 0.0
2015-Jan-28 19:33N 43°34' E 010°18'0 0.0
2015-Jan-28 18:33N 43°34' E 010°18'0 0.0
2015-Jan-28 17:33N 43°34' E 010°18'0 0.0
2015-Jan-28 16:33N 43°34' E 010°18'0 0.0
2015-Jan-28 15:33N 43°34' E 010°18'0 0.0
2015-Jan-28 14:33N 43°34' E 010°18'0 0.0
2015-Jan-28 13:33N 43°34' E 010°18'0 0.0
2015-Jan-28 12:33N 43°34' E 010°18'0 0.0
2015-Jan-28 11:33N 43°34' E 010°18'0 0.1
2015-Jan-28 10:34N 43°34' E 010°18'3 2.8
2015-Jan-28 09:33N 43°31' E 010°17'0 0.1
2015-Jan-28 08:31N 43°31' E 010°17'0 0.0
2015-Jan-28 07:31N 43°31' E 010°17'0 0.0
2015-Jan-28 06:31N 43°31' E 010°17'0 0.0
2015-Jan-28 05:31N 43°31' E 010°17'0 0.0
2015-Jan-28 04:25N 43°31' E 010°17'5 5.7
2015-Jan-28 03:33N 43°28' E 010°12'9 9.3
2015-Jan-28 02:33N 43°21' E 010°03'9 9.0
2015-Jan-28 01:33N 43°18' E 009°51'19 9.4
2015-Jan-27 23:31N 43°15' E 009°25'8 8.9
2015-Jan-27 22:33N 43°14' E 009°13'92 9.1
2015-Jan-27 12:26N 42°60' E 007°09'8 8.9
2015-Jan-27 11:31N 42°59' E 006°58'9 8.9
2015-Jan-27 10:33N 42°57' E 006°46'8 8.3
2015-Jan-27 09:32N 42°56' E 006°35'11 8.5
2015-Jan-27 08:14N 42°55' E 006°20'60 8.9
2015-Jan-27 01:33N 43°17' E 005°03'9 9.4
2015-Jan-27 00:34N 43°24' E 004°55'3 2.6
2015-Jan-26 23:30N 43°24' E 004°51'0 0.0
2015-Jan-26 22:33N 43°24' E 004°51'0 0.0
2015-Jan-26 21:30N 43°24' E 004°51'0 0.0
2015-Jan-26 20:27N 43°24' E 004°51'0 0.0
2015-Jan-26 19:30N 43°24' E 004°51'0 0.0
2015-Jan-26 18:09N 43°24' E 004°51'0 0.0
2015-Jan-26 17:24N 43°24' E 004°51'0 0.0
2015-Jan-26 16:33N 43°24' E 004°51'0 0.0
2015-Jan-26 15:27N 43°24' E 004°51'0 0.0
2015-Jan-26 14:15N 43°24' E 004°51'0 0.0
2015-Jan-26 13:33N 43°24' E 004°51'0 0.0
2015-Jan-26 11:27N 43°24' E 004°51'0 0.0
2015-Jan-26 10:27N 43°24' E 004°51'0 0.0
2015-Jan-26 09:33N 43°24' E 004°51'0 0.0
2015-Jan-26 08:27N 43°24' E 004°51'0 0.0
2015-Jan-26 07:33N 43°24' E 004°51'0 0.0
2015-Jan-26 05:18N 43°24' E 004°51'0 0.0
2015-Jan-26 04:27N 43°24' E 004°51'0 0.0
2015-Jan-26 03:33N 43°24' E 004°51'0 0.0
2015-Jan-26 02:27N 43°24' E 004°51'0 0.0
2015-Jan-26 01:33N 43°24' E 004°51'0 0.0
2015-Jan-26 00:33N 43°24' E 004°51'0 0.0
2015-Jan-25 23:27N 43°24' E 004°51'0 0.0
2015-Jan-25 22:33N 43°24' E 004°51'5 5.3
2015-Jan-25 21:34N 43°22' E 004°58'6 5.8
2015-Jan-25 20:33N 43°18' E 004°52'1010.0
2015-Jan-25 19:33N 43°17' E 004°39'6 5.9
2015-Jan-25 18:31N 43°17' E 004°47'3 2.8
2015-Jan-25 17:33N 43°18' E 004°51'9 9.4
2015-Jan-25 16:33N 43°18' E 004°38'7 4.6
2015-Jan-25 15:03N 43°17' E 004°47'4 8.7
2015-Jan-25 14:33N 43°17' E 004°53'6 5.7
2015-Jan-25 13:33N 43°18' E 004°46'1 0.5
2015-Jan-25 11:33N 43°17' E 004°47'4 3.9
2015-Jan-25 10:33N 43°17' E 004°52'0 0.1
2015-Jan-25 07:34N 43°17' E 004°52'5 4.7
2015-Jan-25 06:33N 43°17' E 004°46'1 0.4
2015-Jan-25 04:33N 43°17' E 004°47'5 4.8
2015-Jan-25 03:33N 43°17' E 004°53'10 9.2
2015-Jan-25 02:31N 43°17' E 004°40'7 3.8
2015-Jan-25 00:33N 43°17' E 004°50'1 0.9
2015-Jan-24 23:33N 43°17' E 004°51'11 8.3
2015-Jan-24 22:11N 43°16' E 004°35'3 4.1
2015-Jan-24 21:26N 43°16' E 004°39'7 6.3
2015-Jan-24 20:16N 43°15' E 004°49'3 4.8
2015-Jan-24 19:33N 43°15' E 004°54'0 0.5
2015-Jan-24 18:33N 43°15' E 004°54'5 5.0
2015-Jan-24 17:33N 43°16' E 004°47'5 5.3
2015-Jan-24 16:32N 43°16' E 004°40'3 2.4
2015-Jan-24 15:11N 43°16' E 004°36'6 3.1
2015-Jan-24 13:25N 43°16' E 004°43'3 2.7
2015-Jan-24 12:24N 43°15' E 004°47'1 1.5
2015-Jan-24 11:33N 43°15' E 004°49'3 3.2
2015-Jan-24 10:33N 43°17' E 004°52'4 4.1
2015-Jan-24 09:33N 43°20' E 004°57'5 4.9
2015-Jan-24 08:32N 43°24' E 004°55'0 0.1
2015-Jan-24 07:32N 43°24' E 004°55'0 0.0
2015-Jan-24 06:32N 43°24' E 004°55'0 0.0
2015-Jan-24 05:32N 43°24' E 004°55'0 0.0
2015-Jan-24 04:32N 43°24' E 004°55'0 0.0
2015-Jan-24 03:32N 43°24' E 004°55'0 0.0
2015-Jan-24 02:32N 43°24' E 004°55'0 0.0
2015-Jan-24 01:32N 43°24' E 004°55'0 0.0
2015-Jan-24 00:32N 43°24' E 004°55'0 0.0
2015-Jan-23 23:32N 43°24' E 004°55'0 0.0
2015-Jan-23 22:32N 43°24' E 004°55'0 0.0
2015-Jan-23 21:32N 43°24' E 004°55'0 0.0
2015-Jan-23 20:32N 43°24' E 004°55'0 0.0
2015-Jan-23 19:32N 43°24' E 004°55'0 0.0
2015-Jan-23 18:32N 43°24' E 004°55'0 0.0
2015-Jan-23 17:32N 43°24' E 004°55'0 0.0
2015-Jan-23 16:32N 43°24' E 004°55'0 0.0
2015-Jan-23 15:32N 43°24' E 004°55'0 0.0
2015-Jan-23 14:32N 43°24' E 004°55'0 0.0
2015-Jan-23 13:32N 43°24' E 004°55'0 0.0
2015-Jan-23 12:32N 43°24' E 004°55'0 0.0
2015-Jan-23 11:32N 43°24' E 004°55'0 0.0
2015-Jan-23 10:32N 43°24' E 004°55'0 0.0
2015-Jan-23 09:32N 43°24' E 004°55'0 0.0
2015-Jan-23 08:32N 43°24' E 004°55'0 0.0
2015-Jan-23 07:32N 43°24' E 004°55'0 0.0
2015-Jan-23 06:32N 43°24' E 004°55'0 0.0
2015-Jan-23 05:32N 43°24' E 004°55'0 0.0
2015-Jan-23 04:32N 43°24' E 004°55'0 0.0
2015-Jan-23 03:29N 43°24' E 004°55'0 0.0
2015-Jan-23 02:32N 43°24' E 004°55'0 0.0
2015-Jan-23 01:32N 43°24' E 004°55'0 0.0
2015-Jan-23 00:32N 43°24' E 004°55'0 0.0
2015-Jan-22 23:32N 43°24' E 004°55'0 0.0
2015-Jan-22 22:32N 43°24' E 004°55'0 0.0
2015-Jan-22 21:32N 43°24' E 004°55'0 0.0
2015-Jan-22 20:32N 43°24' E 004°55'0 0.0
2015-Jan-22 19:32N 43°24' E 004°55'0 0.0
2015-Jan-22 18:32N 43°24' E 004°55'0 0.0
2015-Jan-22 17:32N 43°24' E 004°55'0 0.0
2015-Jan-22 16:32N 43°24' E 004°55'0 0.0
2015-Jan-22 15:29N 43°24' E 004°55'0 0.0
2015-Jan-22 14:32N 43°24' E 004°55'  
Track history (hours):
 
Tides and Currents Weather Stations Pressure Air Temp Water Temp Dewpoint Dewpoint Depression Visibility Wind Speed Wind Dir Waves Ship Positions

Yvonne K.

Last reported at 2015-Feb-01 14:32 UTC. Time now 2015-Feb-01 14:49 UTC.
Position N 43°24' E 004°51'.

Length 90 m; draft 3.5 m.

Type: Cargo ship. MMSI: 244948000.

Date/timePositionNaut miles runAvg speedWind from/ knotsBaromVisibWave heightAir tempDewpointWater temp
2015-Feb-01 14:32N 43°24' E 004°51'0 0.0
2015-Feb-01 13:23N 43°24' E 004°51'0 0.0
2015-Feb-01 12:32N 43°24' E 004°51'0 0.0
2015-Feb-01 11:29N 43°24' E 004°51'0 0.0
2015-Feb-01 10:29N 43°24' E 004°51'0 0.0
2015-Feb-01 09:23N 43°24' E 004°51'0 0.0
2015-Feb-01 08:29N 43°24' E 004°51'0 0.0
2015-Feb-01 07:26N 43°24' E 004°51'0 0.0
2015-Feb-01 06:23N 43°24' E 004°51'0 0.0
2015-Feb-01 05:23N 43°24' E 004°51'0 0.0
2015-Feb-01 04:17N 43°24' E 004°51'0 0.0
2015-Feb-01 03:29N 43°24' E 004°51'0 0.0
2015-Feb-01 02:17N 43°24' E 004°51'0 0.0
2015-Jan-31 23:29N 43°24' E 004°51'0 0.0
2015-Jan-31 21:29N 43°24' E 004°51'0 0.0
2015-Jan-31 20:26N 43°24' E 004°51'0 0.0
2015-Jan-31 19:14N 43°24' E 004°51'0 0.0
2015-Jan-31 18:23N 43°24' E 004°51'0 0.0
2015-Jan-31 16:20N 43°24' E 004°51'0 0.0
2015-Jan-31 15:11N 43°24' E 004°51'0 0.0
2015-Jan-31 14:17N 43°24' E 004°51'0 0.0
2015-Jan-31 13:29N 43°24' E 004°51'0 0.0
2015-Jan-31 12:23N 43°24' E 004°51'0 0.0
2015-Jan-31 11:29N 43°24' E 004°51'0 0.0
2015-Jan-31 10:14N 43°24' E 004°51'3 5.1
2015-Jan-31 09:33N 43°23' E 004°56'8 8.4
2015-Jan-31 08:33N 43°16' E 005°01'18 9.1
2015-Jan-31 06:34N 43°07' E 005°22'59 8.3
2015-Jan-30 23:28N 42°59' E 006°42'8 8.9
2015-Jan-30 22:33N 43°06' E 006°48'9 9.1
2015-Jan-30 21:33N 43°13' E 006°56'8 8.4
2015-Jan-30 20:33N 43°20' E 007°02'8 7.9
2015-Jan-30 19:33N 43°27' E 007°08'9 8.9
2015-Jan-30 18:33N 43°35' E 007°14'8 8.3
2015-Jan-30 17:33N 43°36' E 007°25'57 7.0
2015-Jan-30 09:24N 43°31' E 008°44'5 6.3
2015-Jan-30 08:33N 43°31' E 008°51'31 4.3
2015-Jan-30 01:21N 43°22' E 009°32'4 4.8
2015-Jan-30 00:31N 43°21' E 009°38'5 4.8
2015-Jan-29 23:31N 43°19' E 009°44'5 4.8
2015-Jan-29 22:33N 43°18' E 009°50'5 4.9
2015-Jan-29 21:34N 43°17' E 009°57'4 4.1
2015-Jan-29 20:33N 43°18' E 010°02'5 5.0
2015-Jan-29 19:33N 43°22' E 010°05'5 5.1
2015-Jan-29 18:34N 43°27' E 010°08'5 4.8
2015-Jan-29 17:33N 43°31' E 010°12'5 4.8
2015-Jan-29 16:30N 43°34' E 010°18'0 0.0
2015-Jan-29 15:33N 43°34' E 010°18'0 0.0
2015-Jan-29 14:33N 43°34' E 010°18'0 0.0
2015-Jan-29 13:30N 43°34' E 010°18'0 0.0
2015-Jan-29 12:33N 43°34' E 010°18'0 0.0
2015-Jan-29 11:33N 43°34' E 010°18'0 0.0
2015-Jan-29 10:33N 43°34' E 010°18'0 0.0
2015-Jan-29 09:33N 43°34' E 010°18'0 0.0
2015-Jan-29 08:33N 43°34' E 010°18'0 0.0
2015-Jan-29 07:33N 43°34' E 010°18'0 0.0
2015-Jan-29 06:33N 43°34' E 010°18'0 0.0
2015-Jan-29 05:33N 43°34' E 010°18'0 0.0
2015-Jan-29 04:33N 43°34' E 010°18'0 0.0
2015-Jan-29 03:30N 43°34' E 010°18'0 0.0
2015-Jan-29 02:30N 43°34' E 010°18'0 0.0
2015-Jan-29 01:33N 43°34' E 010°18'0 0.0
2015-Jan-29 00:33N 43°34' E 010°18'0 0.0
2015-Jan-28 23:33N 43°34' E 010°18'0 0.0
2015-Jan-28 22:33N 43°34' E 010°18'0 0.0
2015-Jan-28 21:33N 43°34' E 010°18'0 0.0
2015-Jan-28 20:33N 43°34' E 010°18'0 0.0
2015-Jan-28 19:33N 43°34' E 010°18'0 0.0
2015-Jan-28 18:33N 43°34' E 010°18'0 0.0
2015-Jan-28 17:33N 43°34' E 010°18'0 0.0
2015-Jan-28 16:33N 43°34' E 010°18'0 0.0
2015-Jan-28 15:33N 43°34' E 010°18'0 0.0
2015-Jan-28 14:33N 43°34' E 010°18'0 0.0
2015-Jan-28 13:33N 43°34' E 010°18'0 0.0
2015-Jan-28 12:33N 43°34' E 010°18'0 0.0
2015-Jan-28 11:33N 43°34' E 010°18'0 0.1
2015-Jan-28 10:34N 43°34' E 010°18'3 2.8
2015-Jan-28 09:33N 43°31' E 010°17'0 0.1
2015-Jan-28 08:31N 43°31' E 010°17'0 0.0
2015-Jan-28 07:31N 43°31' E 010°17'0 0.0
2015-Jan-28 06:31N 43°31' E 010°17'0 0.0
2015-Jan-28 05:31N 43°31' E 010°17'0 0.0
2015-Jan-28 04:25N 43°31' E 010°17'5 5.7
2015-Jan-28 03:33N 43°28' E 010°12'9 9.3
2015-Jan-28 02:33N 43°21' E 010°03'9 9.0
2015-Jan-28 01:33N 43°18' E 009°51'19 9.4
2015-Jan-27 23:31N 43°15' E 009°25'8 8.9
2015-Jan-27 22:33N 43°14' E 009°13'92 9.1
2015-Jan-27 12:26N 42°60' E 007°09'8 8.9
2015-Jan-27 11:31N 42°59' E 006°58'9 8.9
2015-Jan-27 10:33N 42°57' E 006°46'8 8.3
2015-Jan-27 09:32N 42°56' E 006°35'11 8.5
2015-Jan-27 08:14N 42°55' E 006°20'60 8.9
2015-Jan-27 01:33N 43°17' E 005°03'9 9.4
2015-Jan-27 00:34N 43°24' E 004°55'3 2.6
2015-Jan-26 23:30N 43°24' E 004°51'0 0.0
2015-Jan-26 22:33N 43°24' E 004°51'0 0.0
2015-Jan-26 21:30N 43°24' E 004°51'0 0.0
2015-Jan-26 20:27N 43°24' E 004°51'0 0.0
2015-Jan-26 19:30N 43°24' E 004°51'0 0.0
2015-Jan-26 18:09N 43°24' E 004°51'0 0.0
2015-Jan-26 17:24N 43°24' E 004°51'0 0.0
2015-Jan-26 16:33N 43°24' E 004°51'0 0.0
2015-Jan-26 15:27N 43°24' E 004°51'0 0.0
2015-Jan-26 14:15N 43°24' E 004°51'0 0.0
2015-Jan-26 13:33N 43°24' E 004°51'0 0.0
2015-Jan-26 11:27N 43°24' E 004°51'0 0.0
2015-Jan-26 10:27N 43°24' E 004°51'0 0.0
2015-Jan-26 09:33N 43°24' E 004°51'0 0.0
2015-Jan-26 08:27N 43°24' E 004°51'0 0.0
2015-Jan-26 07:33N 43°24' E 004°51'0 0.0
2015-Jan-26 05:18N 43°24' E 004°51'0 0.0
2015-Jan-26 04:27N 43°24' E 004°51'0 0.0
2015-Jan-26 03:33N 43°24' E 004°51'0 0.0
2015-Jan-26 02:27N 43°24' E 004°51'0 0.0
2015-Jan-26 01:33N 43°24' E 004°51'0 0.0
2015-Jan-26 00:33N 43°24' E 004°51'0 0.0
2015-Jan-25 23:27N 43°24' E 004°51'0 0.0
2015-Jan-25 22:33N 43°24' E 004°51'5 5.3
2015-Jan-25 21:34N 43°22' E 004°58'6 5.8
2015-Jan-25 20:33N 43°18' E 004°52'1010.0
2015-Jan-25 19:33N 43°17' E 004°39'6 5.9
2015-Jan-25 18:31N 43°17' E 004°47'3 2.8
2015-Jan-25 17:33N 43°18' E 004°51'9 9.4
2015-Jan-25 16:33N 43°18' E 004°38'7 4.6
2015-Jan-25 15:03N 43°17' E 004°47'4 8.7
2015-Jan-25 14:33N 43°17' E 004°53'6 5.7
2015-Jan-25 13:33N 43°18' E 004°46'1 0.5
2015-Jan-25 11:33N 43°17' E 004°47'4 3.9
2015-Jan-25 10:33N 43°17' E 004°52'0 0.1
2015-Jan-25 07:34N 43°17' E 004°52'5 4.7
2015-Jan-25 06:33N 43°17' E 004°46'1 0.4
2015-Jan-25 04:33N 43°17' E 004°47'5 4.8
2015-Jan-25 03:33N 43°17' E 004°53'10 9.2
2015-Jan-25 02:31N 43°17' E 004°40'7 3.8
2015-Jan-25 00:33N 43°17' E 004°50'1 0.9
2015-Jan-24 23:33N 43°17' E 004°51'11 8.3
2015-Jan-24 22:11N 43°16' E 004°35'3 4.1
2015-Jan-24 21:26N 43°16' E 004°39'7 6.3
2015-Jan-24 20:16N 43°15' E 004°49'3 4.8
2015-Jan-24 19:33N 43°15' E 004°54'0 0.5
2015-Jan-24 18:33N 43°15' E 004°54'5 5.0
2015-Jan-24 17:33N 43°16' E 004°47'5 5.3
2015-Jan-24 16:32N 43°16' E 004°40'3 2.4
2015-Jan-24 15:11N 43°16' E 004°36'6 3.1
2015-Jan-24 13:25N 43°16' E 004°43'3 2.7
2015-Jan-24 12:24N 43°15' E 004°47'1 1.5
2015-Jan-24 11:33N 43°15' E 004°49'3 3.2
2015-Jan-24 10:33N 43°17' E 004°52'4 4.1
2015-Jan-24 09:33N 43°20' E 004°57'5 4.9
2015-Jan-24 08:32N 43°24' E 004°55'0 0.1
2015-Jan-24 07:32N 43°24' E 004°55'0 0.0
2015-Jan-24 06:32N 43°24' E 004°55'0 0.0
2015-Jan-24 05:32N 43°24' E 004°55'0 0.0
2015-Jan-24 04:32N 43°24' E 004°55'0 0.0
2015-Jan-24 03:32N 43°24' E 004°55'0 0.0
2015-Jan-24 02:32N 43°24' E 004°55'0 0.0
2015-Jan-24 01:32N 43°24' E 004°55'0 0.0
2015-Jan-24 00:32N 43°24' E 004°55'0 0.0
2015-Jan-23 23:32N 43°24' E 004°55'0 0.0
2015-Jan-23 22:32N 43°24' E 004°55'0 0.0
2015-Jan-23 21:32N 43°24' E 004°55'0 0.0
2015-Jan-23 20:32N 43°24' E 004°55'0 0.0
2015-Jan-23 19:32N 43°24' E 004°55'0 0.0
2015-Jan-23 18:32N 43°24' E 004°55'0 0.0
2015-Jan-23 17:32N 43°24' E 004°55'0 0.0
2015-Jan-23 16:32N 43°24' E 004°55'0 0.0
2015-Jan-23 15:32N 43°24' E 004°55'0 0.0
2015-Jan-23 14:32N 43°24' E 004°55'0 0.0
2015-Jan-23 13:32N 43°24' E 004°55'0 0.0
2015-Jan-23 12:32N 43°24' E 004°55'0 0.0
2015-Jan-23 11:32N 43°24' E 004°55'0 0.0
2015-Jan-23 10:32N 43°24' E 004°55'0 0.0
2015-Jan-23 09:32N 43°24' E 004°55'0 0.0
2015-Jan-23 08:32N 43°24' E 004°55'0 0.0
2015-Jan-23 07:32N 43°24' E 004°55'0 0.0
2015-Jan-23 06:32N 43°24' E 004°55'0 0.0
2015-Jan-23 05:32N 43°24' E 004°55'0 0.0
2015-Jan-23 04:32N 43°24' E 004°55'0 0.0
2015-Jan-23 03:29N 43°24' E 004°55'0 0.0
2015-Jan-23 02:32N 43°24' E 004°55'0 0.0
2015-Jan-23 01:32N 43°24' E 004°55'0 0.0
2015-Jan-23 00:32N 43°24' E 004°55'0 0.0
2015-Jan-22 23:32N 43°24' E 004°55'0 0.0
2015-Jan-22 22:32N 43°24' E 004°55'0 0.0
2015-Jan-22 21:32N 43°24' E 004°55'0 0.0
2015-Jan-22 20:32N 43°24' E 004°55'0 0.0
2015-Jan-22 19:32N 43°24' E 004°55'0 0.0
2015-Jan-22 18:32N 43°24' E 004°55'0 0.0
2015-Jan-22 17:32N 43°24' E 004°55'0 0.0
2015-Jan-22 16:32N 43°24' E 004°55'0 0.0
2015-Jan-22 15:29N 43°24' E 004°55'0 0.0
2015-Jan-22 14:32N 43°24' E 004°55'  

Dump ship's entire track history